Terminal Aerodrome Forecast
Issued by NWS Shreveport, LA

Home | Current Version | Previous Version | Text Only | Print | Product List | Glossary On
Versions: 1 2 3 4 5 6 7 8 9 10 11 12 13 14 15
573
FTUS44 KSHV 261140
TAFTYR
TAF
KTYR 261140Z 2612/2712 VRB03KT P6SM FEW050
     FM261400 VRB04KT P6SM FEW010
     FM261500 10005KT P6SM SCT020
     FM261700 10006KT P6SM SCT035
     FM262200 10006KT P6SM VCTS SCT050CB SCT250
     FM270200 14004KT P6SM FEW060 SCT120 BKN250
     FM270600 17003KT P6SM SCT250=

USA.gov is the U.S. government's official web portal to all federal, state and local government web resources and services.